createdAt,value
2017-12-13T00:00:27.402Z,0.92
2017-12-13T00:02:54.935Z,0.99
2017-12-13T00:05:22.521Z,0.79
2017-12-13T00:07:50.045Z,0.75
2017-12-13T00:10:17.574Z,0.71
2017-12-13T00:12:45.129Z,0.73
2017-12-13T00:15:12.712Z,0.59
2017-12-13T00:17:40.237Z,0.60
2017-12-13T00:20:07.768Z,0.60
2017-12-13T00:22:35.355Z,0.54
2017-12-13T00:25:02.875Z,0.64
2017-12-13T00:27:30.393Z,0.59
2017-12-13T00:29:57.964Z,0.55
2017-12-13T00:32:25.511Z,0.68
2017-12-13T00:34:53.098Z,0.50
2017-12-13T00:37:20.649Z,0.40
2017-12-13T00:39:48.180Z,0.46
2017-12-13T00:42:15.759Z,0.54
2017-12-13T00:44:43.279Z,0.66
2017-12-13T00:47:10.813Z,0.58
2017-12-13T00:49:38.388Z,0.86
2017-12-13T00:52:05.936Z,0.68
2017-12-13T00:54:33.468Z,0.76
2017-12-13T00:57:01.078Z,0.64
2017-12-13T00:59:28.605Z,0.52
2017-12-13T01:01:56.155Z,0.59
2017-12-13T01:04:23.710Z,0.79
2017-12-13T01:06:51.251Z,0.73
2017-12-13T01:09:18.799Z,0.65
2017-12-13T01:11:46.315Z,0.54
2017-12-13T01:14:13.888Z,0.58
2017-12-13T01:16:41.421Z,0.47
2017-12-13T01:19:08.952Z,0.62
2017-12-13T01:21:36.502Z,0.54
2017-12-13T01:24:04.053Z,0.44
2017-12-13T01:26:31.628Z,0.63
2017-12-13T01:28:59.163Z,0.48
2017-12-13T01:31:26.683Z,0.49
2017-12-13T01:33:54.224Z,0.45
2017-12-13T01:36:21.756Z,0.45
2017-12-13T01:38:49.336Z,0.59
2017-12-13T01:41:16.863Z,0.49
2017-12-13T01:43:44.393Z,0.42
2017-12-13T01:46:11.974Z,0.43
2017-12-13T01:48:39.556Z,0.49
2017-12-13T01:51:07.088Z,0.43
2017-12-13T01:53:34.664Z,0.46
2017-12-13T01:56:02.188Z,0.50
2017-12-13T01:58:29.711Z,0.47
2017-12-13T02:00:57.288Z,0.41
2017-12-13T02:03:24.855Z,0.46
2017-12-13T02:05:52.393Z,0.47
2017-12-13T02:08:19.926Z,0.58
2017-12-13T02:10:47.529Z,0.37
2017-12-13T02:13:15.044Z,0.52
2017-12-13T02:15:42.577Z,0.43
2017-12-13T02:18:10.116Z,0.49
2017-12-13T02:20:37.664Z,0.50
2017-12-13T02:23:05.225Z,0.59
2017-12-13T02:25:32.760Z,0.58
2017-12-13T02:28:00.313Z,0.71
2017-12-13T02:30:27.841Z,0.76
2017-12-13T02:32:55.419Z,0.61
2017-12-13T02:35:22.950Z,0.78
2017-12-13T02:37:50.474Z,0.75
2017-12-13T02:40:29.937Z,0.70
2017-12-13T02:42:57.457Z,0.72
2017-12-13T02:45:24.976Z,0.78
2017-12-13T02:47:52.529Z,0.79
2017-12-13T02:50:20.050Z,0.75
2017-12-13T02:52:47.618Z,0.76
2017-12-13T02:55:15.160Z,0.87
2017-12-13T02:57:42.692Z,0.83
2017-12-13T03:00:10.257Z,0.90
2017-12-13T03:02:37.783Z,0.93
2017-12-13T03:05:05.339Z,0.89
2017-12-13T03:07:32.902Z,0.92
2017-12-13T03:10:00.425Z,0.90
2017-12-13T03:12:27.945Z,0.87
2017-12-13T03:14:55.515Z,0.84
2017-12-13T03:17:23.048Z,0.78
2017-12-13T03:19:50.559Z,0.89
2017-12-13T03:22:18.101Z,0.82
2017-12-13T03:24:45.616Z,0.89
2017-12-13T03:27:13.195Z,0.84
2017-12-13T03:29:40.718Z,0.81
2017-12-13T03:32:08.267Z,0.84
2017-12-13T03:34:35.784Z,0.76
2017-12-13T03:37:03.354Z,0.83
2017-12-13T03:39:30.868Z,0.67
2017-12-13T03:41:58.379Z,0.71
2017-12-13T03:44:25.929Z,0.71
2017-12-13T03:46:53.474Z,0.83
2017-12-13T03:49:20.993Z,0.89
2017-12-13T03:51:48.559Z,0.90
2017-12-13T03:54:16.088Z,0.99
2017-12-13T03:56:43.616Z,1.09
2017-12-13T03:59:11.183Z,1.17
2017-12-13T04:01:38.704Z,1.15
2017-12-13T04:04:06.233Z,1.25
2017-12-13T04:06:33.773Z,1.30
2017-12-13T04:09:01.292Z,1.30
2017-12-13T04:11:28.827Z,1.35
2017-12-13T04:13:56.404Z,1.43
2017-12-13T04:16:23.935Z,1.37
2017-12-13T04:18:51.452Z,1.36
2017-12-13T04:21:19.029Z,1.26
2017-12-13T04:23:46.549Z,1.45
2017-12-13T04:26:14.085Z,1.31
2017-12-13T04:28:41.644Z,1.25
2017-12-13T04:31:09.168Z,1.43
2017-12-13T04:33:36.696Z,1.38
2017-12-13T04:36:04.237Z,1.53
2017-12-13T04:38:31.757Z,1.45
2017-12-13T04:40:59.320Z,1.44
2017-12-13T04:43:26.845Z,1.53
2017-12-13T04:45:54.368Z,1.42
2017-12-13T04:48:21.935Z,1.55
2017-12-13T04:50:49.463Z,1.57
2017-12-13T04:53:16.990Z,1.62
2017-12-13T04:55:44.538Z,1.56
2017-12-13T04:58:12.060Z,1.40
2017-12-13T05:00:39.609Z,1.55
2017-12-13T05:03:07.129Z,1.62
2017-12-13T05:05:34.693Z,1.72
2017-12-13T05:08:02.208Z,1.74
2017-12-13T05:10:29.720Z,1.77
2017-12-13T05:12:57.270Z,1.66
2017-12-13T05:15:24.790Z,1.64
2017-12-13T05:17:52.335Z,1.66
2017-12-13T05:20:19.921Z,1.78
2017-12-13T05:22:47.498Z,1.73
2017-12-13T05:25:15.030Z,1.72
2017-12-13T05:27:42.539Z,1.60
2017-12-13T05:30:10.109Z,1.61
2017-12-13T05:32:37.621Z,1.58
2017-12-13T05:35:05.146Z,1.60
2017-12-13T05:37:32.686Z,1.66
2017-12-13T05:40:00.191Z,1.57
2017-12-13T05:42:27.751Z,1.59
2017-12-13T05:44:55.267Z,1.53
2017-12-13T05:47:22.793Z,1.61
2017-12-13T05:49:50.359Z,1.62
2017-12-13T05:52:17.875Z,1.74
2017-12-13T05:54:45.406Z,1.76
2017-12-13T05:57:12.972Z,1.76
2017-12-13T05:59:40.497Z,1.86
2017-12-13T06:02:08.959Z,1.87
2017-12-13T06:04:36.528Z,1.95
2017-12-13T06:07:04.046Z,2.08
2017-12-13T06:09:31.559Z,1.98
2017-12-13T06:11:59.163Z,2.17
2017-12-13T06:14:26.709Z,2.09
2017-12-13T06:16:54.219Z,2.06
2017-12-13T06:19:21.785Z,2.08
2017-12-13T06:21:49.283Z,2.11
2017-12-13T06:24:16.835Z,2.21
2017-12-13T06:26:44.387Z,2.25
2017-12-13T06:29:11.886Z,2.27
2017-12-13T06:31:39.423Z,2.19
2017-12-13T06:34:06.981Z,2.25
2017-12-13T06:36:34.499Z,2.34
2017-12-13T06:39:02.019Z,2.27
2017-12-13T06:41:29.580Z,2.20
2017-12-13T06:43:57.088Z,2.30
2017-12-13T06:46:24.600Z,2.30
2017-12-13T06:48:52.168Z,2.30
2017-12-13T06:51:19.685Z,2.37
2017-12-13T06:53:47.192Z,2.30
2017-12-13T06:56:14.718Z,2.29
2017-12-13T06:58:42.237Z,2.37
2017-12-13T07:01:09.801Z,2.36
2017-12-13T07:03:37.303Z,2.39
2017-12-13T07:06:04.817Z,2.45
2017-12-13T07:08:32.381Z,2.42
2017-12-13T07:10:59.889Z,2.57
2017-12-13T07:13:27.395Z,2.45
2017-12-13T07:15:54.929Z,2.46
2017-12-13T07:18:22.479Z,2.62
2017-12-13T07:20:49.997Z,2.52
2017-12-13T07:23:17.508Z,2.53
2017-12-13T07:25:45.049Z,2.64
2017-12-13T07:28:12.570Z,2.64
2017-12-13T07:30:40.136Z,2.40
2017-12-13T07:33:07.640Z,2.62
2017-12-13T07:35:35.162Z,2.57
2017-12-13T07:38:02.736Z,2.68
2017-12-13T07:40:30.240Z,2.62
2017-12-13T07:42:57.756Z,2.70
2017-12-13T07:45:25.371Z,2.70
2017-12-13T07:47:52.867Z,2.64
2017-12-13T07:50:20.372Z,2.55
2017-12-13T07:52:47.924Z,2.55
2017-12-13T07:55:15.432Z,2.69
2017-12-13T07:57:42.940Z,2.74
2017-12-13T08:00:10.506Z,2.63
2017-12-13T08:02:38.008Z,2.65
2017-12-13T08:05:05.511Z,2.56
2017-12-13T08:07:33.072Z,2.52
2017-12-13T08:10:00.578Z,2.59
2017-12-13T08:12:28.093Z,2.50
2017-12-13T08:14:55.640Z,2.40
2017-12-13T08:17:23.206Z,2.41
2017-12-13T08:19:50.712Z,2.49
2017-12-13T08:22:18.224Z,2.27
2017-12-13T08:24:45.756Z,2.34
2017-12-13T08:27:13.288Z,2.47
2017-12-13T08:29:40.789Z,2.57
2017-12-13T08:32:08.366Z,2.28
2017-12-13T08:34:35.871Z,2.32
2017-12-13T08:37:03.393Z,2.23
2017-12-13T08:39:30.965Z,2.25
2017-12-13T08:41:58.474Z,2.23
2017-12-13T08:44:25.988Z,2.35
2017-12-13T08:46:53.526Z,2.23
2017-12-13T08:49:21.045Z,2.28
2017-12-13T08:51:48.613Z,2.22
2017-12-13T08:54:16.129Z,2.23
2017-12-13T08:56:43.652Z,2.22
2017-12-13T08:59:11.219Z,2.20
2017-12-13T09:01:38.724Z,2.20
2017-12-13T09:04:06.219Z,2.23
2017-12-13T09:06:33.804Z,2.22
2017-12-13T09:09:01.320Z,2.18
2017-12-13T09:11:28.821Z,2.22
2017-12-13T09:13:56.357Z,2.08
2017-12-13T09:16:23.916Z,1.96
2017-12-13T09:18:51.494Z,1.95
2017-12-13T09:21:19.013Z,1.77
2017-12-13T09:23:46.555Z,1.59
2017-12-13T09:26:14.079Z,1.48
2017-12-13T09:28:41.610Z,1.58
2017-12-13T09:31:09.152Z,1.53
2017-12-13T09:33:36.655Z,1.50
2017-12-13T09:36:04.211Z,1.70
2017-12-13T09:38:31.730Z,1.48
2017-12-13T09:40:59.254Z,1.57
2017-12-13T09:43:26.813Z,1.78
2017-12-13T09:45:54.321Z,1.68
2017-12-13T09:48:21.840Z,1.66
2017-12-13T09:50:49.398Z,1.66
2017-12-13T09:53:16.912Z,1.73
2017-12-13T09:55:44.439Z,1.74
2017-12-13T09:58:12.004Z,1.85
2017-12-13T10:00:39.532Z,1.94
2017-12-13T10:03:07.052Z,2.06
2017-12-13T10:05:34.592Z,2.10
2017-12-13T10:08:02.173Z,2.10
2017-12-13T10:10:29.721Z,2.05
2017-12-13T10:12:57.232Z,2.01
2017-12-13T10:15:24.752Z,2.16
2017-12-13T10:17:52.282Z,2.18
2017-12-13T10:20:19.831Z,2.15
2017-12-13T10:22:47.393Z,2.13
2017-12-13T10:25:14.904Z,2.09
2017-12-13T10:27:42.425Z,2.13
2017-12-13T10:30:09.980Z,2.18
2017-12-13T10:32:37.498Z,2.21
2017-12-13T10:35:05.008Z,2.28
2017-12-13T10:37:32.545Z,2.34
2017-12-13T10:40:00.057Z,2.28
2017-12-13T10:42:27.611Z,2.32
2017-12-13T10:44:55.134Z,2.37
2017-12-13T10:47:22.650Z,2.48
2017-12-13T10:49:50.201Z,2.47
2017-12-13T10:52:17.709Z,2.57
2017-12-13T10:54:45.207Z,2.70
2017-12-13T10:57:12.773Z,2.53
2017-12-13T10:59:40.281Z,2.69
2017-12-13T11:02:07.824Z,2.51
2017-12-13T11:04:35.385Z,2.54
2017-12-13T11:07:02.893Z,2.73
2017-12-13T11:09:30.391Z,2.60
2017-12-13T11:11:57.930Z,2.78
2017-12-13T11:14:25.486Z,2.66
2017-12-13T11:16:53.001Z,2.60
2017-12-13T11:19:20.531Z,2.55
2017-12-13T11:21:48.053Z,2.56
2017-12-13T11:24:15.619Z,2.46
2017-12-13T11:26:43.116Z,2.35
2017-12-13T11:29:10.643Z,2.50
2017-12-13T11:31:38.224Z,2.41
2017-12-13T11:34:05.732Z,2.35
2017-12-13T11:36:33.249Z,2.53
2017-12-13T11:39:00.779Z,2.39
2017-12-13T11:41:28.285Z,2.52
2017-12-13T11:43:55.802Z,2.36
2017-12-13T11:46:23.366Z,2.31
2017-12-13T11:48:50.873Z,2.44
2017-12-13T11:51:18.379Z,2.36
2017-12-13T11:53:45.924Z,2.26
2017-12-13T11:56:13.445Z,2.36
2017-12-13T11:58:41.009Z,2.55
2017-12-13T12:01:08.534Z,2.43
2017-12-13T12:03:36.048Z,2.29
2017-12-13T12:06:03.598Z,2.60
2017-12-13T12:08:31.136Z,2.57
2017-12-13T12:10:58.631Z,2.39
2017-12-13T12:13:26.160Z,2.36
2017-12-13T12:15:53.692Z,2.52
2017-12-13T12:18:21.241Z,2.55
2017-12-13T12:20:48.743Z,2.60
2017-12-13T12:23:16.280Z,2.56
2017-12-13T12:25:43.784Z,2.70
2017-12-13T12:28:11.343Z,2.65
2017-12-13T12:30:38.843Z,2.48
2017-12-13T12:33:06.347Z,2.60
2017-12-13T12:35:33.877Z,2.60
2017-12-13T12:38:01.428Z,2.66
2017-12-13T12:40:28.992Z,2.65
2017-12-13T12:42:56.504Z,2.54
2017-12-13T12:45:24.020Z,2.55
2017-12-13T12:47:51.568Z,2.64
2017-12-13T12:50:19.076Z,2.70
2017-12-13T12:52:46.588Z,2.74
2017-12-13T12:55:14.119Z,2.70
2017-12-13T12:57:41.619Z,2.87
2017-12-13T13:00:09.184Z,2.85
2017-12-13T13:02:36.688Z,2.68
2017-12-13T13:05:04.197Z,2.91
2017-12-13T13:07:31.760Z,2.83
2017-12-13T13:09:59.272Z,2.83
2017-12-13T13:12:26.781Z,2.88
2017-12-13T13:14:54.335Z,2.71
2017-12-13T13:17:21.853Z,2.73
2017-12-13T13:19:49.348Z,2.78
2017-12-13T13:22:16.881Z,2.72
2017-12-13T13:24:44.384Z,2.72
2017-12-13T13:27:11.956Z,2.81
2017-12-13T13:29:39.484Z,2.76
2017-12-13T13:32:07.038Z,2.78
2017-12-13T13:34:34.592Z,2.61
2017-12-13T13:37:02.096Z,2.61
2017-12-13T13:39:29.608Z,2.59
2017-12-13T13:41:57.156Z,2.58
2017-12-13T13:44:24.665Z,2.78
2017-12-13T13:46:52.171Z,2.75
2017-12-13T13:49:19.733Z,2.78
2017-12-13T13:51:47.245Z,2.83
2017-12-13T13:54:14.752Z,2.79
2017-12-13T13:56:42.295Z,2.89
2017-12-13T13:59:09.792Z,2.84
2017-12-13T14:01:37.301Z,2.89
2017-12-13T14:04:04.831Z,3.02
2017-12-13T14:06:32.326Z,2.89
2017-12-13T14:08:59.905Z,2.86
2017-12-13T14:11:27.408Z,2.85
2017-12-13T14:13:54.925Z,2.98
2017-12-13T14:16:22.484Z,2.98
2017-12-13T14:18:50.005Z,3.24
2017-12-13T14:21:17.536Z,3.16
2017-12-13T14:23:45.111Z,3.08
2017-12-13T14:26:12.628Z,3.12
2017-12-13T14:28:40.144Z,3.25
2017-12-13T14:31:07.717Z,3.33
2017-12-13T14:33:35.239Z,3.28
2017-12-13T14:36:02.744Z,3.19
2017-12-13T14:38:30.305Z,3.34
2017-12-13T14:40:57.826Z,3.49
2017-12-13T14:43:25.345Z,3.32
2017-12-13T14:45:52.885Z,3.36
2017-12-13T14:48:20.426Z,3.32
2017-12-13T14:50:47.944Z,3.35
2017-12-13T14:53:15.487Z,3.38
2017-12-13T14:55:43.069Z,3.41
2017-12-13T14:58:10.576Z,3.43
2017-12-13T15:00:38.835Z,3.59
2017-12-13T15:03:06.408Z,3.44
2017-12-13T15:05:33.930Z,3.47
2017-12-13T15:08:01.457Z,3.79
2017-12-13T15:10:29.020Z,3.55
2017-12-13T15:12:56.537Z,3.50
2017-12-13T15:15:24.056Z,3.51
2017-12-13T15:17:51.620Z,3.58
2017-12-13T15:20:19.142Z,3.61
2017-12-13T15:22:46.647Z,3.53
2017-12-13T15:25:14.216Z,3.68
2017-12-13T15:27:41.732Z,3.70
2017-12-13T15:30:09.309Z,3.71
2017-12-13T15:32:36.850Z,3.91
2017-12-13T15:35:04.432Z,3.75
2017-12-13T15:37:31.953Z,3.90
2017-12-13T15:39:59.482Z,3.86
2017-12-13T15:42:27.048Z,3.98
2017-12-13T15:44:54.571Z,3.87
2017-12-13T15:47:22.084Z,3.98
2017-12-13T15:49:49.662Z,3.88
2017-12-13T15:52:17.192Z,4.00
2017-12-13T15:54:44.736Z,3.96
2017-12-13T15:57:12.305Z,4.04
2017-12-13T15:59:39.819Z,4.19
2017-12-13T16:02:07.332Z,4.06
2017-12-13T16:04:34.897Z,4.01
2017-12-13T16:07:02.412Z,4.06
2017-12-13T16:09:29.928Z,4.00
2017-12-13T16:11:57.484Z,3.94
2017-12-13T16:14:25.000Z,4.00
2017-12-13T16:16:52.568Z,4.10
2017-12-13T16:19:20.095Z,3.91
2017-12-13T16:21:47.604Z,3.99
2017-12-13T16:24:15.172Z,4.07
2017-12-13T16:26:42.697Z,4.17
2017-12-13T16:29:10.222Z,4.13
2017-12-13T16:31:37.770Z,4.07
2017-12-13T16:34:05.280Z,4.16
2017-12-13T16:36:32.844Z,4.11
2017-12-13T16:39:00.360Z,3.98
2017-12-13T16:41:27.881Z,4.03
2017-12-13T16:43:55.427Z,4.17
2017-12-13T16:46:22.952Z,4.11
2017-12-13T16:48:50.486Z,4.10
2017-12-13T16:51:18.049Z,4.24
2017-12-13T16:53:45.576Z,4.17
2017-12-13T16:56:13.089Z,4.20
2017-12-13T16:58:40.636Z,4.25
2017-12-13T17:01:08.169Z,4.34
2017-12-13T17:03:35.681Z,4.28
2017-12-13T17:06:03.258Z,4.12
2017-12-13T17:08:30.821Z,4.20
2017-12-13T17:10:58.332Z,4.24
2017-12-13T17:13:25.918Z,4.16
2017-12-13T17:15:53.501Z,4.23
2017-12-13T17:18:21.007Z,4.12
2017-12-13T17:20:48.572Z,4.19
2017-12-13T17:23:16.089Z,4.22
2017-12-13T17:25:43.623Z,4.41
2017-12-13T17:28:11.161Z,4.17
2017-12-13T17:30:38.676Z,4.20
2017-12-13T17:33:06.212Z,4.12
2017-12-13T17:35:33.759Z,4.10
2017-12-13T17:38:01.264Z,4.20
2017-12-13T17:40:28.783Z,4.16
2017-12-13T17:42:56.372Z,4.20
2017-12-13T17:45:23.892Z,4.30
2017-12-13T17:47:51.428Z,4.15
2017-12-13T17:50:18.965Z,4.14
2017-12-13T17:52:46.532Z,4.21
2017-12-13T17:55:14.044Z,4.15
2017-12-13T17:57:41.561Z,4.16
2017-12-13T18:00:09.116Z,4.30
2017-12-13T18:02:36.623Z,4.33
2017-12-13T18:05:04.180Z,4.22
2017-12-13T18:07:31.725Z,4.13
2017-12-13T18:09:59.246Z,4.14
2017-12-13T18:12:26.796Z,4.01
2017-12-13T18:14:54.309Z,4.04
2017-12-13T18:17:21.873Z,4.04
2017-12-13T18:19:49.384Z,4.06
2017-12-13T18:22:16.896Z,3.98
2017-12-13T18:24:44.433Z,4.03
2017-12-13T18:27:11.947Z,3.98
2017-12-13T18:29:39.479Z,3.95
2017-12-13T18:32:07.043Z,4.04
2017-12-13T18:34:34.561Z,4.11
2017-12-13T18:37:02.073Z,4.06
2017-12-13T18:39:29.624Z,4.04
2017-12-13T18:41:57.155Z,3.99
2017-12-13T18:44:24.728Z,4.14
2017-12-13T18:46:52.262Z,3.96
2017-12-13T18:49:19.784Z,3.86
2017-12-13T18:51:47.361Z,3.96
2017-12-13T18:54:14.908Z,3.99
2017-12-13T18:56:42.436Z,3.91
2017-12-13T18:59:10.005Z,3.94
2017-12-13T19:01:37.543Z,3.94
2017-12-13T19:04:05.076Z,3.84
2017-12-13T19:06:32.646Z,3.79
2017-12-13T19:09:00.178Z,3.98
2017-12-13T19:11:27.712Z,3.92
2017-12-13T19:13:55.251Z,3.95
2017-12-13T19:16:22.793Z,3.88
2017-12-13T19:18:50.308Z,3.92
2017-12-13T19:21:17.883Z,3.88
2017-12-13T19:23:45.407Z,3.96
2017-12-13T19:26:12.934Z,4.04
2017-12-13T19:28:40.468Z,4.04
2017-12-13T19:31:08.025Z,4.12
2017-12-13T19:33:35.558Z,4.08
2017-12-13T19:36:03.072Z,4.05
2017-12-13T19:38:30.631Z,4.06
2017-12-13T19:40:58.139Z,4.05
2017-12-13T19:43:25.656Z,4.04
2017-12-13T19:45:53.244Z,4.16
2017-12-13T19:48:20.779Z,4.20
2017-12-13T19:50:48.346Z,4.13
2017-12-13T19:53:15.924Z,4.20
2017-12-13T19:55:43.444Z,4.18
2017-12-13T19:58:10.964Z,4.12
2017-12-13T20:00:38.549Z,4.12
2017-12-13T20:03:06.116Z,4.24
2017-12-13T20:05:33.644Z,4.20
2017-12-13T20:08:01.191Z,4.19
2017-12-13T20:10:28.775Z,4.18
2017-12-13T20:12:56.300Z,4.13
2017-12-13T20:15:23.821Z,4.21
2017-12-13T20:17:51.406Z,4.20
2017-12-13T20:20:18.938Z,4.20
2017-12-13T20:22:46.469Z,4.32
2017-12-13T20:25:14.039Z,4.32
2017-12-13T20:27:41.555Z,4.29
2017-12-13T20:30:09.083Z,4.39
2017-12-13T20:32:36.624Z,4.40
2017-12-13T20:35:04.196Z,4.44
2017-12-13T20:37:31.744Z,4.41
2017-12-13T20:39:59.269Z,4.40
2017-12-13T20:42:26.833Z,4.39
2017-12-13T20:44:54.341Z,4.43
2017-12-13T20:47:21.864Z,4.31
2017-12-13T20:49:49.405Z,4.31
2017-12-13T20:52:16.924Z,4.36
2017-12-13T20:54:44.485Z,4.39
2017-12-13T20:57:11.999Z,4.30
2017-12-13T20:59:39.545Z,4.29
2017-12-13T21:02:07.054Z,4.53
2017-12-13T21:04:34.625Z,4.41
2017-12-13T21:07:02.152Z,4.29
2017-12-13T21:09:29.663Z,4.30
2017-12-13T21:11:57.223Z,4.45
2017-12-13T21:14:24.736Z,4.47
2017-12-13T21:16:52.252Z,4.52
2017-12-13T21:19:19.826Z,4.39
2017-12-13T21:21:47.341Z,4.38
2017-12-13T21:24:14.892Z,4.49
2017-12-13T21:26:42.565Z,4.48
2017-12-13T21:29:10.085Z,4.50
2017-12-13T21:31:37.587Z,4.60
2017-12-13T21:34:05.150Z,4.50
2017-12-13T21:36:32.666Z,4.54
2017-12-13T21:39:00.189Z,4.52
2017-12-13T21:41:27.839Z,4.53
2017-12-13T21:43:55.377Z,4.57
2017-12-13T21:46:22.888Z,4.72
2017-12-13T21:48:51.348Z,4.72
2017-12-13T21:51:18.874Z,4.82
2017-12-13T21:53:46.397Z,4.65
2017-12-13T21:56:13.966Z,4.61
2017-12-13T21:58:41.488Z,4.61
2017-12-13T22:01:08.996Z,4.63
2017-12-13T22:03:36.539Z,4.68
2017-12-13T22:06:04.055Z,4.77
2017-12-13T22:08:31.616Z,4.75
2017-12-13T22:10:59.158Z,4.72
2017-12-13T22:13:26.687Z,4.78
2017-12-13T22:15:54.199Z,4.73
2017-12-13T22:18:21.748Z,4.72
2017-12-13T22:20:49.277Z,4.53
2017-12-13T22:23:16.798Z,4.54
2017-12-13T22:25:44.391Z,4.44
2017-12-13T22:28:11.905Z,4.35
2017-12-13T22:30:39.413Z,4.35
2017-12-13T22:33:06.949Z,4.24
2017-12-13T22:35:34.466Z,4.26
2017-12-13T22:38:02.002Z,4.23
2017-12-13T22:40:29.516Z,4.16
2017-12-13T22:42:57.075Z,4.13
2017-12-13T22:45:24.593Z,4.10
2017-12-13T22:47:52.147Z,4.12
2017-12-13T22:50:19.773Z,4.08
2017-12-13T22:52:47.294Z,4.13
2017-12-13T22:55:14.838Z,3.99
2017-12-13T22:57:42.384Z,3.88
2017-12-13T23:00:09.972Z,3.94
2017-12-13T23:02:37.547Z,3.99
2017-12-13T23:05:05.047Z,4.20
2017-12-13T23:07:32.579Z,4.09
2017-12-13T23:10:00.093Z,4.08
2017-12-13T23:12:27.659Z,4.09
2017-12-13T23:14:55.172Z,4.16
2017-12-13T23:17:23.598Z,4.12
2017-12-13T23:19:51.152Z,4.09
2017-12-13T23:22:18.714Z,4.13
2017-12-13T23:24:46.228Z,4.16
2017-12-13T23:27:13.794Z,4.02
2017-12-13T23:29:41.325Z,4.16
2017-12-13T23:32:08.890Z,4.11
2017-12-13T23:34:36.388Z,4.10
2017-12-13T23:37:03.891Z,4.05
2017-12-13T23:39:31.451Z,3.89
2017-12-13T23:41:58.956Z,3.92
2017-12-13T23:44:26.455Z,3.72
2017-12-13T23:46:54.018Z,3.74
2017-12-13T23:49:21.530Z,3.81
2017-12-13T23:51:49.068Z,3.71
2017-12-13T23:54:16.603Z,3.65
2017-12-13T23:56:44.121Z,3.59
2017-12-13T23:59:11.680Z,3.57
